EST,Max TemperatureF,Mean TemperatureF,Min TemperatureF,Max Dew PointF,MeanDew PointF,Min DewpointF,Max Humidity, Mean Humidity, Min Humidity, Max Sea Level PressureIn, Mean Sea Level PressureIn, Min Sea Level PressureIn, Max VisibilityMiles, Mean VisibilityMiles, Min VisibilityMiles, Max Wind SpeedMPH, Mean Wind SpeedMPH, Max Gust SpeedMPH,PrecipitationIn, CloudCover, Events, WindDirDegrees
2011-11-1,63,46,29,32,26,22,82,60,21,30.24,30.20,30.16,10,9,7,14,3,17,0.00,0,,191
2011-11-2,65,54,44,32,28,26,52,38,23,30.21,30.15,30.05,10,10,4,21,10,23,0.00,0,,194
2011-11-3,54,49,44,41,34,30,76,56,42,30.02,29.95,29.89,10,9,4,15,9,20,0.13,3,Rain,137
2011-11-4,51,44,36,38,29,20,75,57,31,30.28,30.20,30.06,10,10,7,16,13,25,0.00,2,,55
2011-11-5,56,43,30,25,22,17,71,49,22,30.31,30.26,30.17,10,10,7,12,6,,0.00,0,,131
2011-11-6,59,48,38,32,29,24,68,50,33,30.24,30.19,30.15,10,10,7,21,10,28,0.00,0,,173
2011-11-7,70,52,49,49,44,33,84,74,43,30.28,30.23,30.19,10,6,2,12,6,18,0.22,8,Rain,194
2011-11-8,70,58,50,49,45,43,83,61,41,30.18,30.06,29.96,10,9,3,18,8,26,0.01,5,,168
2011-11-9,62,50,38,50,41,29,77,67,49,30.00,29.84,29.69,10,9,3,33,17,47,0.17,8,Rain,215
2011-11-10,42,37,32,28,25,18,80,67,42,30.03,30.01,29.98,10,10,5,22,12,28,0.00,3,,254
2011-11-11,42,34,27,26,22,19,80,60,39,30.07,29.98,29.82,10,10,7,17,11,23,0.00,0,,227
2011-11-12,59,47,35,29,25,20,67,44,25,29.95,29.88,29.82,10,10,7,21,13,29,0.00,0,,206
2011-11-13,65,58,51,50,40,28,69,50,39,29.80,29.65,29.54,10,10,7,37,20,50,0.00,5,,207
2011-11-14,68,58,47,54,49,39,82,73,57,29.73,29.64,29.52,10,8,3,31,12,41,0.74,6,Rain,230
2011-11-15,56,52,48,46,44,41,83,74,59,29.85,29.81,29.76,10,8,2,17,7,21,0.01,3,,208
2011-11-16,50,43,35,45,26,6,83,52,21,30.12,29.97,29.82,10,8,0,14,8,21,0.00,2,,323
2011-11-17,36,30,25,19,13,4,64,48,27,30.28,30.19,30.13,10,10,7,26,11,33,0.00,2,,272
2011-11-18,45,35,25,14,9,1,61,36,16,30.31,30.21,30.05,10,10,10,24,11,33,0.00,2,,194
2011-11-19,54,46,39,35,24,12,68,46,29,30.08,30.01,29.90,10,10,7,22,18,28,0.00,7,Rain,193
2011-11-20,58,50,42,45,37,30,68,61,52,30.25,30.14,29.93,10,9,7,25,14,33,0.00,7,,333
2011-11-21,44,42,39,35,33,30,78,72,62,30.31,30.23,30.17,10,9,5,15,11,18,0.03,8,Rain,76
2011-11-22,43,42,40,38,35,32,82,77,71,30.17,29.92,29.63,10,5,2,24,12,29,1.03,8,Rain,70
2011-11-23,43,39,35,36,33,30,84,79,72,30.28,30.14,29.88,10,5,0,13,9,18,0.01,5,Rain,290
2011-11-24,48,41,34,37,34,30,86,79,67,30.32,30.27,30.21,10,4,0,15,10,21,0.00,5,Fog,214
2011-11-25,58,48,38,37,34,32,81,61,39,30.18,30.10,30.01,10,9,5,24,15,29,0.00,0,,204
2011-11-26,62,55,48,42,37,31,59,52,44,30.04,29.99,29.86,10,10,7,24,13,33,0.00,3,Rain,194
2011-11-27,58,48,38,48,39,32,81,76,53,30.02,29.87,29.78,10,8,2,18,12,25,0.36,8,Rain,284
2011-11-28,38,36,35,32,31,30,82,78,74,30.06,29.98,29.82,10,8,5,21,12,29,0.18,8,Rain-Snow,35
2011-11-29,40,36,32,35,31,28,87,83,80,29.79,29.71,29.67,7,3,0,23,15,32,1.37,8,Rain-Snow,4
2011-11-30,33,30,28,27,24,22,82,73,68,30.16,30.00,29.82,10,8,4,13,8,,0.00,4,Snow,283